Time;durP1;ratioP1;P1;durP2;ratioP2;P2;SDS_P1;SDS_P2;PMS_P1;PMS_P2;Temp;Humidity;BMP_temperature;BMP_pressure;BME280_temperature;BME280_humidity;BME280_pressure;Samples;Min_cycle;Max_cycle;Signal;HPM_P1;HPM_P2
2022/06/18 00:02:23;;;;;;;10.48;8.73;;;16.80;99.90;;;;;;4978196;28;20077;-80
2022/06/18 00:04:48;;;;;;;8.85;7.90;;;16.90;99.90;;;;;;4978809;28;20027;-80
2022/06/18 00:07:20;;;;;;;12.02;8.40;;;16.80;99.90;;;;;;4978659;28;20025;-80
2022/06/18 00:09:57;;;;;;;10.65;8.45;;;17.00;99.90;;;;;;4978797;28;20082;-80
2022/06/18 00:15:21;;;;;;;10.25;8.02;;;16.80;99.90;;;;;;4979031;28;20050;-80
2022/06/18 00:17:47;;;;;;;10.82;9.25;;;16.80;99.90;;;;;;4978886;28;20021;-81
2022/06/18 00:20:13;;;;;;;9.65;8.18;;;16.80;99.90;;;;;;4978437;28;20034;-81
2022/06/18 00:22:41;;;;;;;10.13;9.02;;;16.70;99.90;;;;;;4978546;28;20634;-81
2022/06/18 00:25:18;;;;;;;16.90;9.25;;;16.80;99.90;;;;;;4978411;28;20427;-80
2022/06/18 00:27:44;;;;;;;10.48;8.48;;;16.90;99.90;;;;;;4977950;28;20054;-81
2022/06/18 00:30:15;;;;;;;14.82;9.10;;;16.90;99.90;;;;;;4978181;28;20030;-81
2022/06/18 00:32:41;;;;;;;11.02;8.50;;;17.00;99.90;;;;;;4978211;28;20053;-81
2022/06/18 00:35:07;;;;;;;13.02;8.18;;;17.00;99.90;;;;;;4977829;28;20496;-81
2022/06/18 00:37:33;;;;;;;11.38;8.52;;;16.90;99.90;;;;;;4977678;28;20554;-81
2022/06/18 00:39:58;;;;;;;12.45;8.95;;;17.10;1.00;;;;;;4977850;28;20047;-81
2022/06/18 00:42:30;;;;;;;10.98;8.57;;;17.10;1.00;;;;;;4977571;28;20019;-80
2022/06/18 00:44:59;;;;;;;9.73;7.90;;;16.80;1.00;;;;;;4978139;28;20034;-81
2022/06/18 00:47:34;;;;;;;11.63;7.97;;;16.80;1.00;;;;;;4977026;28;20027;-81
2022/06/18 00:50:12;;;;;;;11.73;8.30;;;16.70;1.00;;;;;;4978331;28;20019;-80
2022/06/18 00:52:44;;;;;;;11.70;9.02;;;16.80;1.00;;;;;;4978589;28;20034;-81
2022/06/18 00:55:21;;;;;;;16.42;9.75;;;16.70;1.00;;;;;;4977733;28;20022;-80
2022/06/18 00:57:59;;;;;;;14.18;9.52;;;16.70;1.00;;;;;;4978048;28;20023;-80
2022/06/18 01:00:42;;;;;;;15.18;9.38;;;16.70;1.00;;;;;;4978028;28;20364;-81
2022/06/18 01:03:23;;;;;;;13.75;10.18;;;16.70;1.00;;;;;;4976958;28;20034;-81
2022/06/18 01:05:49;;;;;;;15.20;9.75;;;16.70;1.00;;;;;;4977750;28;20043;-81
2022/06/18 01:08:20;;;;;;;20.60;9.57;;;16.80;1.00;;;;;;4976829;28;20025;-81
2022/06/18 01:10:54;;;;;;;16.98;10.18;;;16.80;1.00;;;;;;4977979;28;20414;-81
2022/06/18 01:13:25;;;;;;;16.60;10.43;;;16.70;1.00;;;;;;4976482;28;20031;-81
2022/06/18 01:15:54;;;;;;;14.60;10.32;;;16.50;1.00;;;;;;4976675;28;20085;-81
2022/06/18 01:18:20;;;;;;;17.30;13.05;;;16.60;1.00;;;;;;4977925;28;20031;-81
2022/06/18 01:20:51;;;;;;;16.25;12.10;;;16.50;1.00;;;;;;4978383;28;20015;-81
2022/06/18 01:23:29;;;;;;;22.75;12.35;;;16.40;1.00;;;;;;4978732;28;20051;-80
2022/06/18 01:25:55;;;;;;;19.70;11.65;;;16.50;1.00;;;;;;4977820;28;20021;-80
2022/06/18 01:28:22;;;;;;;14.45;11.93;;;16.50;1.00;;;;;;4976833;28;20043;-81
2022/06/18 01:30:48;;;;;;;15.77;12.18;;;16.40;1.00;;;;;;4977729;28;20097;-81
2022/06/18 01:33:14;;;;;;;19.65;11.90;;;16.30;1.00;;;;;;4977714;28;20703;-81
2022/06/18 01:35:46;;;;;;;16.83;12.63;;;16.30;1.00;;;;;;4977315;28;20109;-81
2022/06/18 01:38:12;;;;;;;20.48;12.90;;;16.20;1.00;;;;;;4977102;28;20023;-81
2022/06/18 01:41:49;;;;;;;16.92;12.75;;;16.20;1.00;;;;;;4977214;28;20018;-81
2022/06/18 01:43:48;;;;;;;16.98;11.95;;;16.10;1.00;;;;;;4977094;28;20070;-80
2022/06/18 01:46:14;;;;;;;17.10;13.70;;;16.10;1.00;;;;;;4976904;28;20046;-81
2022/06/18 01:48:42;;;;;;;23.13;14.23;;;16.10;1.00;;;;;;4976936;28;20026;-81
2022/06/18 01:51:17;;;;;;;19.52;13.55;;;16.00;1.00;;;;;;4977570;28;20038;-80
2022/06/18 01:53:49;;;;;;;19.58;14.15;;;16.00;1.00;;;;;;4978718;28;20038;-80
2022/06/18 01:56:18;;;;;;;21.17;13.68;;;15.90;1.00;;;;;;4978806;28;20546;-80
2022/06/18 01:59:10;;;;;;;18.55;13.80;;;15.90;1.00;;;;;;4978498;28;20023;-80
2022/06/18 02:01:39;;;;;;;24.90;14.10;;;15.90;1.00;;;;;;4978650;28;20486;-80
2022/06/18 02:04:05;;;;;;;22.85;14.27;;;15.80;1.00;;;;;;4979012;28;20223;-80
2022/06/18 02:06:34;;;;;;;20.58;14.45;;;15.80;1.00;;;;;;4977953;28;20136;-80
2022/06/18 02:09:05;;;;;;;21.93;14.77;;;15.70;1.00;;;;;;4979582;28;20023;-80
2022/06/18 02:11:31;;;;;;;22.63;15.40;;;15.80;1.00;;;;;;4979609;28;20023;-80
2022/06/18 02:14:16;;;;;;;25.23;15.32;;;15.90;1.00;;;;;;4977753;28;20027;-80
2022/06/18 02:16:45;;;;;;;20.23;14.80;;;15.70;1.00;;;;;;4976545;28;20027;-81
2022/06/18 02:19:12;;;;;;;19.67;14.03;;;15.60;1.00;;;;;;4976810;28;20494;-81
2022/06/18 02:21:43;;;;;;;18.67;13.13;;;15.50;1.00;;;;;;4976752;28;20462;-81
2022/06/18 02:24:09;;;;;;;23.10;14.70;;;15.50;1.00;;;;;;4976891;28;20031;-81
2022/06/18 02:26:36;;;;;;;22.60;15.50;;;15.40;1.00;;;;;;4976380;28;20022;-81
2022/06/18 02:29:04;;;;;;;24.73;15.38;;;15.40;1.00;;;;;;4976040;28;20090;-81
2022/06/18 02:31:34;;;;;;;19.00;14.57;;;15.40;1.00;;;;;;4976060;28;20073;-81
2022/06/18 02:34:08;;;;;;;23.90;14.98;;;15.40;1.00;;;;;;4976281;28;20034;-81
2022/06/18 02:36:36;;;;;;;27.17;14.15;;;15.50;1.00;;;;;;4974999;28;20394;-81
2022/06/18 02:39:10;;;;;;;22.98;15.45;;;15.40;1.00;;;;;;4976173;28;20031;-81
2022/06/18 02:41:40;;;;;;;22.70;14.38;;;15.40;1.00;;;;;;4976413;28;20038;-81
2022/06/18 02:44:06;;;;;;;23.30;14.73;;;15.50;1.00;;;;;;4976082;28;20038;-81
2022/06/18 02:46:32;;;;;;;23.95;14.55;;;15.40;1.00;;;;;;4975760;28;20085;-81
2022/06/18 02:49:00;;;;;;;27.42;15.75;;;15.40;1.00;;;;;;4976191;28;20019;-81
2022/06/18 02:51:27;;;;;;;21.58;14.68;;;15.50;1.00;;;;;;4976668;28;20033;-81
2022/06/18 02:53:53;;;;;;;26.05;15.70;;;15.40;1.00;;;;;;4976223;28;20031;-81
2022/06/18 02:56:18;;;;;;;25.27;14.93;;;15.40;1.00;;;;;;4976144;28;20026;-81
2022/06/18 02:58:47;;;;;;;25.10;15.13;;;15.50;1.00;;;;;;4976457;28;20025;-81
2022/06/18 03:01:16;;;;;;;22.70;14.75;;;15.40;1.00;;;;;;4976326;28;20426;-82
2022/06/18 03:03:45;;;;;;;24.23;14.15;;;15.40;1.00;;;;;;4976057;28;20102;-81
2022/06/18 03:06:11;;;;;;;22.27;14.30;;;15.40;1.00;;;;;;4975425;28;20049;-81
2022/06/18 03:08:38;;;;;;;22.52;13.70;;;15.40;1.00;;;;;;4975385;28;20055;-82
2022/06/18 03:13:52;;;;;;;21.55;14.48;;;15.60;1.00;;;;;;4980489;28;20533;-81
2022/06/18 03:16:19;;;;;;;19.75;14.68;;;15.60;1.00;;;;;;4979679;28;20029;-81
2022/06/18 03:18:46;;;;;;;27.63;13.95;;;15.60;1.00;;;;;;4979924;28;20019;-81
2022/06/18 03:21:45;;;;;;;26.30;15.27;;;15.60;1.00;;;;;;4980435;28;20022;-81
2022/06/18 03:24:11;;;;;;;22.58;14.82;;;15.60;1.00;;;;;;4980434;28;20031;-81
2022/06/18 03:26:37;;;;;;;22.75;14.35;;;15.70;1.00;;;;;;4979743;28;20471;-81
2022/06/18 03:29:05;;;;;;;22.70;14.07;;;15.70;1.00;;;;;;4979774;28;20110;-81
2022/06/18 03:31:31;;;;;;;21.65;13.68;;;15.80;1.00;;;;;;4980119;28;20058;-81
2022/06/18 03:33:57;;;;;;;22.52;14.65;;;15.80;1.00;;;;;;4979989;28;20022;-81
2022/06/18 03:36:23;;;;;;;23.23;13.55;;;15.90;1.00;;;;;;4979889;28;20031;-81
2022/06/18 03:38:49;;;;;;;19.88;13.55;;;15.90;1.00;;;;;;4979224;28;20026;-81
2022/06/18 03:41:15;;;;;;;22.13;14.25;;;15.90;1.00;;;;;;4979519;28;20105;-81
2022/06/18 03:43:41;;;;;;;22.52;14.55;;;15.90;1.00;;;;;;4980002;28;20434;-81
2022/06/18 03:46:10;;;;;;;21.77;14.65;;;16.00;1.00;;;;;;4979378;28;20548;-81
2022/06/18 03:48:49;;;;;;;21.63;14.50;;;15.90;1.00;;;;;;4979623;28;20367;-81
2022/06/18 03:51:16;;;;;;;21.33;15.27;;;16.10;1.00;;;;;;4979778;28;20061;-81
2022/06/18 03:53:42;;;;;;;27.30;15.77;;;16.00;1.00;;;;;;4979986;28;20067;-81
2022/06/18 03:56:11;;;;;;;23.85;15.00;;;16.10;1.00;;;;;;4979383;28;20027;-80
2022/06/18 03:58:37;;;;;;;23.27;15.10;;;16.10;1.00;;;;;;4979604;28;20022;-81
2022/06/18 04:01:03;;;;;;;22.98;14.07;;;16.40;1.00;;;;;;4979707;28;20022;-81
2022/06/18 04:03:28;;;;;;;21.30;13.23;;;16.60;1.00;;;;;;4979019;28;20033;-81
2022/06/18 04:05:54;;;;;;;21.67;13.80;;;17.00;1.00;;;;;;4979199;28;20028;-81
2022/06/18 04:08:20;;;;;;;23.80;13.15;;;17.60;1.00;;;;;;4979572;28;20365;-82
2022/06/18 04:10:47;;;;;;;23.20;12.88;;;18.00;1.00;;;;;;4979343;28;20023;-81
2022/06/18 04:13:13;;;;;;;22.30;13.65;;;18.20;1.00;;;;;;4979028;28;20029;-81
2022/06/18 04:15:39;;;;;;;21.17;13.25;;;18.50;1.00;;;;;;4979835;28;20066;-81
2022/06/18 04:18:05;;;;;;;18.77;12.27;;;18.90;1.00;;;;;;4980500;28;20034;-82
2022/06/18 04:20:34;;;;;;;18.48;13.40;;;19.30;99.90;;;;;;4982202;28;20137;-81
2022/06/18 04:23:01;;;;;;;20.98;12.68;;;19.70;99.90;;;;;;4982782;28;20030;-81
2022/06/18 04:25:27;;;;;;;18.70;11.82;;;20.20;99.90;;;;;;4980669;28;20089;-81
2022/06/18 04:27:57;;;;;;;15.10;11.07;;;20.60;99.90;;;;;;4979126;28;20057;-82
2022/06/18 04:30:24;;;;;;;16.30;10.75;;;21.20;99.90;;;;;;4979435;28;20025;-82
2022/06/18 04:32:49;;;;;;;14.82;10.68;;;21.70;99.90;;;;;;4979585;28;20359;-82
2022/06/18 04:35:15;;;;;;;13.88;10.25;;;22.10;99.90;;;;;;4978832;28;20034;-82
2022/06/18 04:37:43;;;;;;;15.57;9.38;;;22.50;99.90;;;;;;4978382;28;20422;-81
2022/06/18 04:40:13;;;;;;;17.50;10.02;;;22.80;99.90;;;;;;4979056;28;20454;-82
2022/06/18 04:42:39;;;;;;;19.00;10.20;;;23.30;99.90;;;;;;4977531;28;20070;-82
2022/06/18 04:45:05;;;;;;;13.90;10.80;;;23.50;99.90;;;;;;4975270;28;20078;-81
2022/06/18 04:47:30;;;;;;;14.70;9.50;;;23.70;99.90;;;;;;4959031;28;20027;-81
2022/06/18 04:49:56;;;;;;;15.02;8.93;;;24.40;99.90;;;;;;4959560;28;20024;-82
2022/06/18 04:52:22;;;;;;;15.50;9.13;;;24.90;99.90;;;;;;4959569;28;20427;-81
2022/06/18 04:54:51;;;;;;;12.30;8.23;;;25.30;99.90;;;;;;4959374;28;20031;-82
2022/06/18 04:57:17;;;;;;;12.32;8.65;;;25.70;99.90;;;;;;4959163;28;20023;-81
2022/06/18 04:59:43;;;;;;;12.07;8.60;;;26.00;99.90;;;;;;4958999;28;20078;-82
2022/06/18 05:02:23;;;;;;;9.55;7.65;;;26.40;99.90;;;;;;4959052;28;20042;-81
2022/06/18 05:04:49;;;;;;;13.80;7.95;;;26.70;99.90;;;;;;4958922;28;20050;-82
2022/06/18 05:07:14;;;;;;;13.27;7.72;;;27.00;99.90;;;;;;4958933;28;20028;-82
2022/06/18 05:09:40;;;;;;;13.20;7.85;;;27.20;99.90;;;;;;4958778;28;20390;-81
2022/06/18 05:12:06;;;;;;;12.75;8.00;;;27.30;99.90;;;;;;4958640;28;20050;-82
2022/06/18 05:14:32;;;;;;;12.75;7.38;;;27.20;99.90;;;;;;4958261;28;20106;-81
2022/06/18 05:17:00;;;;;;;11.85;7.18;;;27.20;99.90;;;;;;4958227;28;20031;-81
2022/06/18 05:19:29;;;;;;;11.85;6.82;;;28.00;99.90;;;;;;4958224;28;20027;-81
2022/06/18 05:21:55;;;;;;;9.47;6.63;;;28.40;99.90;;;;;;4958690;28;20027;-81
2022/06/18 05:24:20;;;;;;;10.57;6.57;;;28.50;99.90;;;;;;4958406;28;20364;-81
2022/06/18 05:26:49;;;;;;;11.00;6.20;;;28.30;99.90;;;;;;4957658;28;20058;-81
2022/06/18 05:29:15;;;;;;;6.97;5.10;;;29.00;99.90;;;;;;4957557;28;20047;-81
2022/06/18 05:31:41;;;;;;;6.70;4.13;;;29.30;99.90;;;;;;4958323;28;20029;-81
2022/06/18 05:34:07;;;;;;;6.43;3.97;;;28.20;99.90;;;;;;4957874;28;20031;-81
2022/06/18 05:36:33;;;;;;;8.75;3.40;;;25.80;99.90;;;;;;4957824;28;20034;-81
2022/06/18 05:38:59;;;;;;;5.53;3.03;;;24.70;99.90;;;;;;4957973;28;20031;-81
2022/06/18 05:41:26;;;;;;;5.47;3.22;;;24.80;99.90;;;;;;4958834;28;20418;-81
2022/06/18 05:43:52;;;;;;;6.45;2.97;;;24.50;99.90;;;;;;4957479;28;20034;-81
2022/06/18 05:46:17;;;;;;;6.30;3.63;;;25.40;99.90;;;;;;4957677;28;20023;-81
2022/06/18 05:48:43;;;;;;;7.55;3.80;;;25.80;99.90;;;;;;4957903;28;20383;-81
2022/06/18 05:51:09;;;;;;;5.22;3.80;;;27.80;99.90;;;;;;4958278;28;20078;-81
2022/06/18 05:53:35;;;;;;;7.60;3.47;;;28.00;99.90;;;;;;4958486;28;20479;-81
2022/06/18 05:56:01;;;;;;;5.30;2.55;;;26.50;99.90;;;;;;4957670;28;20042;-81
2022/06/18 05:58:27;;;;;;;4.50;2.75;;;25.80;99.90;;;;;;4957293;28;20031;-81
2022/06/18 06:00:53;;;;;;;3.25;2.30;;;25.40;99.90;;;;;;4957617;28;20016;-81
2022/06/18 06:03:19;;;;;;;3.45;1.98;;;26.70;99.90;;;;;;4957275;28;20134;-80
2022/06/18 06:05:45;;;;;;;3.53;1.55;;;28.50;99.90;;;;;;4957365;28;20031;-81
2022/06/18 06:08:12;;;;;;;2.17;1.70;;;29.90;99.90;;;;;;4957155;28;20477;-81
2022/06/18 06:13:22;;;;;;;3.55;1.85;;;30.40;99.90;;;;;;4957406;29;20035;-81
2022/06/18 06:15:48;;;;;;;4.82;1.88;;;31.50;99.90;;;;;;4957024;28;20023;-81
2022/06/18 06:18:16;;;;;;;7.40;1.83;;;31.60;99.90;;;;;;4956819;28;20467;-81
2022/06/18 06:20:45;;;;;;;3.10;1.95;;;32.10;99.90;;;;;;4957034;28;20027;-80
2022/06/18 06:23:11;;;;;;;2.47;1.50;;;32.40;99.90;;;;;;4957095;28;20038;-80
2022/06/18 06:25:38;;;;;;;3.03;1.65;;;32.80;99.90;;;;;;4956297;28;20034;-81
2022/06/18 06:28:04;;;;;;;1.55;1.17;;;32.80;99.90;;;;;;4955849;28;20098;-81
2022/06/18 06:30:30;;;;;;;1.30;1.17;;;33.20;99.90;;;;;;4956770;28;20034;-81
2022/06/18 06:32:56;;;;;;;2.42;1.20;;;32.80;99.90;;;;;;4956288;28;20027;-81
2022/06/18 06:35:21;;;;;;;2.72;1.30;;;33.20;99.90;;;;;;4956528;28;20506;-81
2022/06/18 06:37:47;;;;;;;1.80;1.27;;;33.00;99.90;;;;;;4956053;28;20057;-81
2022/06/18 06:40:13;;;;;;;1.88;1.20;;;33.80;99.90;;;;;;4956152;28;20055;-81
2022/06/18 06:42:59;;;;;;;2.13;1.38;;;33.50;99.90;;;;;;4956430;28;20106;-80
2022/06/18 06:45:27;;;;;;;1.67;1.08;;;33.80;99.90;;;;;;4955365;28;20086;-81
2022/06/18 06:47:54;;;;;;;4.00;1.30;;;34.50;99.90;;;;;;4956143;28;20407;-81
2022/06/18 06:50:21;;;;;;;1.27;1.17;;;35.70;99.90;;;;;;4956535;28;20031;-81
2022/06/18 06:52:50;;;;;;;2.10;1.00;;;36.50;99.90;;;;;;4956780;28;20390;-81
2022/06/18 06:58:09;;;;;;;1.38;0.93;;;35.40;99.90;;;;;;4956920;29;20038;-81
2022/06/18 07:00:39;;;;;;;1.42;0.80;;;35.10;99.90;;;;;;4956743;28;20031;-80
2022/06/18 07:03:04;;;;;;;0.90;0.90;;;34.80;99.90;;;;;;4956941;28;20023;-80
2022/06/18 07:05:30;;;;;;;2.28;1.42;;;34.80;99.90;;;;;;4956420;28;20045;-81
2022/06/18 07:07:56;;;;;;;2.80;1.10;;;34.80;99.90;;;;;;4956538;28;20447;-81
2022/06/18 07:10:22;;;;;;;2.28;1.20;;;35.70;99.90;;;;;;4957028;28;20020;-81
2022/06/18 07:12:48;;;;;;;4.65;1.25;;;35.60;99.90;;;;;;4956674;29;20478;-81
2022/06/18 07:15:14;;;;;;;2.42;1.10;;;35.50;99.90;;;;;;4956798;28;20031;-81
2022/06/18 07:17:40;;;;;;;1.42;1.23;;;36.70;99.90;;;;;;4956950;28;20024;-81
2022/06/18 07:20:09;;;;;;;0.98;0.90;;;35.20;99.90;;;;;;4956874;28;20028;-81
2022/06/18 07:22:35;;;;;;;1.50;1.07;;;35.00;99.90;;;;;;4956927;28;20036;-81
2022/06/18 07:25:01;;;;;;;3.67;1.00;;;35.30;99.90;;;;;;4956912;28;20086;-80
2022/06/18 07:27:29;;;;;;;0.77;0.75;;;35.30;99.90;;;;;;4956157;28;20225;-81
2022/06/18 07:29:55;;;;;;;1.70;0.82;;;34.90;99.90;;;;;;4971490;28;20035;-81
2022/06/18 07:32:21;;;;;;;1.38;1.00;;;35.00;99.90;;;;;;4956459;29;20371;-81
2022/06/18 07:34:47;;;;;;;1.65;0.75;;;35.50;99.90;;;;;;4956138;28;20034;-81
2022/06/18 07:37:13;;;;;;;2.03;0.80;;;36.60;99.90;;;;;;4956234;28;20071;-81
2022/06/18 07:39:39;;;;;;;0.95;0.82;;;36.30;99.90;;;;;;4956487;28;20031;-81
2022/06/18 07:42:05;;;;;;;1.25;0.90;;;36.40;99.90;;;;;;4956316;28;20034;-81
2022/06/18 07:44:32;;;;;;;2.20;1.00;;;37.30;99.90;;;;;;4955971;28;20032;-81
2022/06/18 07:46:58;;;;;;;2.75;0.90;;;37.40;99.90;;;;;;4955669;28;20100;-81
2022/06/18 07:49:25;;;;;;;1.73;0.80;;;36.80;99.90;;;;;;4956196;28;20082;-81
2022/06/18 07:51:51;;;;;;;0.93;0.93;;;35.50;99.90;;;;;;4956317;28;20027;-80
2022/06/18 07:54:18;;;;;;;2.38;1.00;;;34.40;99.90;;;;;;4956111;28;20034;-81
2022/06/18 07:56:44;;;;;;;0.90;0.73;;;35.20;99.90;;;;;;4958200;28;20652;-81
2022/06/18 07:59:11;;;;;;;3.55;1.10;;;35.20;99.90;;;;;;4959791;28;20027;-81
2022/06/18 08:01:38;;;;;;;3.42;1.20;;;33.60;99.90;;;;;;4959546;28;20035;-81
2022/06/18 08:04:04;;;;;;;1.42;0.85;;;35.10;99.90;;;;;;4959347;28;20051;-80
2022/06/18 08:06:30;;;;;;;0.88;0.77;;;35.70;99.90;;;;;;4959636;29;20102;-81
2022/06/18 08:08:55;;;;;;;1.90;1.48;;;33.50;99.90;;;;;;4959754;28;20455;-80
2022/06/18 08:11:21;;;;;;;3.15;1.02;;;35.80;99.90;;;;;;4959312;28;20027;-81
2022/06/18 08:13:49;;;;;;;1.40;0.98;;;34.90;99.90;;;;;;4959176;28;20028;-81
2022/06/18 08:16:16;;;;;;;4.28;1.45;;;35.70;99.90;;;;;;4959200;28;20098;-80
2022/06/18 08:18:42;;;;;;;2.35;1.00;;;36.70;99.90;;;;;;4959162;28;20024;-80
2022/06/18 08:21:15;;;;;;;3.33;1.20;;;37.60;99.90;;;;;;4959940;28;20046;-81
2022/06/18 08:23:46;;;;;;;1.42;1.00;;;38.30;99.90;;;;;;4959229;28;20023;-80
2022/06/18 08:26:12;;;;;;;2.88;1.10;;;38.20;99.90;;;;;;4959045;28;20452;-80
2022/06/18 08:28:39;;;;;;;0.80;0.70;;;37.30;99.90;;;;;;4958633;28;20058;-81
2022/06/18 08:31:05;;;;;;;3.45;1.20;;;38.70;99.90;;;;;;4958930;28;20031;-81
2022/06/18 08:33:32;;;;;;;1.30;0.80;;;38.20;99.90;;;;;;4958672;28;20463;-80
2022/06/18 08:36:00;;;;;;;1.60;0.98;;;38.40;99.90;;;;;;4958867;28;20031;-80
2022/06/18 08:38:26;;;;;;;2.22;0.77;;;38.60;99.90;;;;;;4958603;28;20032;-80
2022/06/18 08:40:58;;;;;;;0.60;0.60;;;38.90;99.90;;;;;;4958520;28;20034;-80
2022/06/18 08:43:38;;;;;;;2.33;0.73;;;37.80;99.90;;;;;;4958572;28;20031;-80
2022/06/18 08:46:34;;;;;;;1.63;0.90;;;38.30;99.90;;;;;;4958153;28;20089;-80
2022/06/18 08:49:07;;;;;;;0.93;0.60;;;37.60;99.90;;;;;;4958438;29;20122;-80
2022/06/18 08:51:57;;;;;;;2.08;0.80;;;38.10;99.90;;;;;;4958321;28;20465;-80
2022/06/18 08:54:28;;;;;;;0.65;0.50;;;37.50;99.90;;;;;;4958631;28;20031;-80
2022/06/18 08:57:01;;;;;;;1.95;0.82;;;37.00;99.90;;;;;;4958691;28;20034;-80
2022/06/18 08:59:57;;;;;;;1.33;0.80;;;35.30;99.90;;;;;;4958565;28;20098;-80
2022/06/18 09:02:49;;;;;;;1.08;0.70;;;36.40;99.90;;;;;;4959296;28;20102;-80
2022/06/18 09:05:29;;;;;;;1.48;0.88;;;36.10;99.90;;;;;;4959556;28;20090;-80
2022/06/18 09:08:10;;;;;;;1.45;1.00;;;37.40;99.90;;;;;;4959009;28;20098;-80
2022/06/18 09:11:08;;;;;;;1.33;0.85;;;36.80;99.90;;;;;;4960326;29;20026;-80
2022/06/18 09:13:46;;;;;;;0.93;0.80;;;36.60;99.90;;;;;;4959870;29;20031;-80
2022/06/18 09:16:15;;;;;;;2.35;0.90;;;37.60;99.90;;;;;;4958045;28;20027;-80
2022/06/18 09:18:49;;;;;;;3.50;1.08;;;37.00;99.90;;;;;;4976492;28;20031;-80
2022/06/18 09:21:24;;;;;;;3.17;1.20;;;37.40;99.90;;;;;;4977894;28;20529;-79
2022/06/18 09:23:55;;;;;;;3.63;0.90;;;37.30;99.90;;;;;;4977490;28;20125;-80
2022/06/18 09:26:26;;;;;;;2.63;0.93;;;35.50;99.90;;;;;;4976833;28;20030;-80
2022/06/18 09:29:17;;;;;;;2.67;1.00;;;36.70;99.90;;;;;;4976657;28;20058;-80
2022/06/18 09:32:05;;;;;;;2.45;1.15;;;35.60;99.90;;;;;;4977426;28;20050;-80
2022/06/18 09:34:49;;;;;;;1.65;1.00;;;36.00;99.90;;;;;;4977217;28;20015;-80
2022/06/18 09:37:39;;;;;;;1.05;0.80;;;34.20;99.90;;;;;;4976762;28;20038;-80
2022/06/18 09:40:15;;;;;;;2.50;0.90;;;32.30;99.90;;;;;;4976668;28;20023;-80
2022/06/18 09:42:51;;;;;;;1.67;0.98;;;35.30;99.90;;;;;;4977383;28;20030;-80
2022/06/18 09:45:28;;;;;;;3.67;1.52;;;36.10;99.90;;;;;;4976956;28;20037;-80
2022/06/18 09:47:54;;;;;;;1.35;0.80;;;35.80;99.90;;;;;;4976126;28;20058;-78
2022/06/18 09:50:54;;;;;;;1.45;0.75;;;35.60;99.90;;;;;;4976633;28;20050;-79
2022/06/18 09:53:31;;;;;;;2.63;0.70;;;36.70;99.90;;;;;;4976427;28;20077;-79
2022/06/18 09:56:03;;;;;;;1.13;0.50;;;36.10;99.90;;;;;;4976339;28;20019;-79
2022/06/18 09:58:37;;;;;;;1.27;0.60;;;35.70;99.90;;;;;;4976268;28;20035;-78
2022/06/18 10:01:04;;;;;;;1.67;0.70;;;35.10;99.90;;;;;;4976627;28;20038;-79
2022/06/18 10:09:10;;;;;;;2.25;0.90;;;36.50;99.90;;;;;;4976476;28;20122;-79
2022/06/18 10:11:37;;;;;;;2.55;0.90;;;35.80;99.90;;;;;;4976265;28;20022;-79
2022/06/18 10:14:18;;;;;;;1.70;0.88;;;36.40;99.90;;;;;;4976562;28;20023;-79
2022/06/18 10:17:18;;;;;;;2.25;1.00;;;36.30;99.90;;;;;;4976911;28;20030;-79
2022/06/18 10:20:06;;;;;;;0.80;0.60;;;36.40;99.90;;;;;;4976003;28;20457;-79
2022/06/18 10:22:37;;;;;;;1.90;0.60;;;36.20;99.90;;;;;;4976292;28;20355;-79
2022/06/18 10:25:10;;;;;;;2.65;0.80;;;36.60;99.90;;;;;;4976211;28;20115;-78
2022/06/18 10:27:39;;;;;;;2.95;0.70;;;36.30;99.90;;;;;;4975432;28;20058;-79
2022/06/18 10:30:15;;;;;;;1.33;0.60;;;35.50;99.90;;;;;;4975708;28;20386;-79
2022/06/18 10:32:46;;;;;;;1.77;0.70;;;35.20;99.90;;;;;;4975875;28;20459;-79
2022/06/18 10:35:38;;;;;;;1.67;0.80;;;35.70;99.90;;;;;;4975764;28;20097;-79
2022/06/18 10:38:22;;;;;;;2.10;0.80;;;35.40;99.90;;;;;;4976015;28;20015;-79
2022/06/18 10:41:13;;;;;;;2.85;0.80;;;34.90;99.90;;;;;;4976174;28;20482;-79
2022/06/18 10:44:18;;;;;;;1.13;0.73;;;35.30;99.90;;;;;;4975309;28;20023;-79
2022/06/18 10:46:43;;;;;;;2.70;1.15;;;36.00;99.90;;;;;;4972468;28;20390;-79
2022/06/18 10:49:10;;;;;;;2.10;0.65;;;34.20;99.90;;;;;;4975529;28;20467;-79
2022/06/18 10:51:48;;;;;;;2.13;0.60;;;34.00;99.90;;;;;;4975864;28;20034;-79
2022/06/18 10:54:15;;;;;;;1.73;0.43;;;35.40;99.90;;;;;;4975599;28;20421;-79
2022/06/18 10:56:59;;;;;;;1.80;0.80;;;34.80;99.90;;;;;;4975478;28;20026;-79
2022/06/18 10:59:51;;;;;;;3.08;1.15;;;36.00;99.90;;;;;;4975598;28;20027;-79
2022/06/18 11:02:29;;;;;;;2.50;0.98;;;34.40;99.90;;;;;;4974237;28;20031;-79
2022/06/18 11:04:58;;;;;;;2.30;0.73;;;35.00;99.90;;;;;;4975174;28;20082;-79
2022/06/18 11:07:25;;;;;;;;;;;34.50;99.90;;;;;;4975693;28;20030;-78
2022/06/18 11:09:57;;;;;;;2.83;0.70;;;33.60;99.90;;;;;;4975398;28;19906;-79
2022/06/18 11:12:29;;;;;;;3.08;0.93;;;33.70;99.90;;;;;;4975240;28;20085;-79
2022/06/18 11:14:55;;;;;;;3.28;1.40;;;33.00;99.90;;;;;;4975724;28;20050;-79
2022/06/18 11:17:41;;;;;;;4.55;0.93;;;32.10;99.90;;;;;;4975686;28;20470;-79
2022/06/18 11:20:17;;;;;;;2.20;1.15;;;31.30;99.90;;;;;;4975804;28;20027;-79
2022/06/18 11:23:13;;;;;;;2.95;1.15;;;30.70;99.90;;;;;;4975193;28;20030;-79
2022/06/18 11:25:41;;;;;;;3.13;1.35;;;28.70;99.90;;;;;;4975040;28;20050;-79
2022/06/18 11:28:20;;;;;;;3.95;1.05;;;28.00;99.90;;;;;;4974426;28;20046;-79
2022/06/18 11:30:49;;;;;;;1.75;0.82;;;27.70;99.90;;;;;;4975974;28;20478;-79
2022/06/18 11:33:33;;;;;;;3.28;1.00;;;27.60;99.90;;;;;;4978815;28;20027;-79
2022/06/18 11:36:11;;;;;;;4.75;1.00;;;27.00;99.90;;;;;;4978509;28;20027;-79
2022/06/18 11:38:38;;;;;;;4.15;1.00;;;27.50;99.90;;;;;;4978770;28;20106;-79
2022/06/18 11:41:40;;;;;;;2.00;0.73;;;26.90;99.90;;;;;;4978542;28;20023;-79
2022/06/18 11:44:17;;;;;;;3.05;0.80;;;26.50;99.90;;;;;;4978671;28;20030;-79
2022/06/18 11:46:49;;;;;;;2.03;0.80;;;26.30;99.90;;;;;;4978300;28;20031;-78
2022/06/18 11:49:27;;;;;;;3.25;0.68;;;26.30;99.90;;;;;;4978737;28;20065;-78
2022/06/18 11:51:52;;;;;;;2.33;0.68;;;26.10;99.90;;;;;;4978591;28;20027;-79
2022/06/18 11:54:28;;;;;;;3.78;1.10;;;25.90;99.90;;;;;;4978769;28;20382;-79
2022/06/18 11:57:18;;;;;;;2.58;0.98;;;25.60;99.90;;;;;;4978592;28;20034;-78
2022/06/18 12:00:17;;;;;;;4.72;1.35;;;25.60;99.90;;;;;;4978431;28;20026;-78
2022/06/18 12:02:58;;;;;;;2.40;1.15;;;25.80;99.90;;;;;;4978068;28;20027;-78
2022/06/18 12:05:46;;;;;;;7.00;1.38;;;25.40;99.90;;;;;;4978437;28;20031;-78
2022/06/18 12:08:19;;;;;;;4.53;0.88;;;25.60;99.90;;;;;;4978119;28;20026;-79
2022/06/18 12:10:52;;;;;;;4.93;0.80;;;25.50;99.90;;;;;;4978209;28;20038;-78
2022/06/18 12:13:41;;;;;;;5.47;0.85;;;25.60;99.90;;;;;;4978098;28;20422;-79
2022/06/18 12:16:21;;;;;;;2.83;1.25;;;25.50;99.90;;;;;;4977804;28;20073;-79
2022/06/18 12:18:56;;;;;;;3.53;0.80;;;25.60;99.90;;;;;;4978241;28;20041;-78
2022/06/18 12:21:32;;;;;;;3.60;0.90;;;25.80;99.90;;;;;;4976901;28;20446;-79
2022/06/18 12:24:16;;;;;;;4.25;1.02;;;25.80;99.90;;;;;;4977788;28;20035;-78
2022/06/18 12:26:41;;;;;;;3.40;0.70;;;25.30;99.90;;;;;;4977967;28;20030;-78
2022/06/18 12:29:19;;;;;;;4.30;0.95;;;25.00;99.90;;;;;;4977483;28;20043;-79
2022/06/18 12:32:11;;;;;;;1.45;0.52;;;25.10;99.90;;;;;;4977981;28;20041;-79
2022/06/18 12:34:50;;;;;;;3.35;0.80;;;24.40;99.90;;;;;;4977748;28;20050;-78
2022/06/18 12:37:27;;;;;;;5.78;1.15;;;24.20;99.90;;;;;;4977548;28;20031;-78
2022/06/18 12:40:11;;;;;;;4.63;1.00;;;24.80;99.90;;;;;;4977735;28;20030;-78
2022/06/18 12:42:56;;;;;;;3.83;0.95;;;24.50;99.90;;;;;;4977415;28;20077;-78
2022/06/18 12:45:43;;;;;;;2.20;0.90;;;24.50;99.90;;;;;;4977349;28;20035;-78
2022/06/18 12:48:17;;;;;;;7.05;1.30;;;24.00;99.90;;;;;;4977029;28;20027;-78
2022/06/18 12:50:52;;;;;;;7.18;1.17;;;24.10;99.90;;;;;;4977589;28;20026;-78
2022/06/18 12:53:39;;;;;;;4.90;0.77;;;23.80;99.90;;;;;;4977453;28;20026;-79
2022/06/18 12:56:21;;;;;;;4.70;1.38;;;24.30;99.90;;;;;;4977311;28;20023;-79
2022/06/18 12:59:01;;;;;;;7.30;1.67;;;23.70;99.90;;;;;;4977025;28;20019;-79
2022/06/18 13:01:58;;;;;;;6.10;1.52;;;23.10;99.90;;;;;;4977099;28;20026;-79
2022/06/18 13:04:57;;;;;;;4.68;1.05;;;23.50;99.90;;;;;;4975956;28;20508;-79
2022/06/18 13:07:31;;;;;;;9.98;1.23;;;22.90;99.90;;;;;;4977337;28;20031;-79
2022/06/18 13:10:01;;;;;;;5.70;0.90;;;23.20;99.90;;;;;;4977351;28;20030;-79
2022/06/18 13:12:51;;;;;;;5.80;1.02;;;24.00;99.90;;;;;;4977613;28;20057;-79
2022/06/18 13:15:33;;;;;;;7.20;1.00;;;23.20;99.90;;;;;;4976990;28;20610;-78
2022/06/18 13:18:23;;;;;;;4.53;1.00;;;23.60;99.90;;;;;;4977521;28;20027;-79
2022/06/18 13:20:54;;;;;;;5.15;0.90;;;23.40;99.90;;;;;;4977020;28;20090;-79
2022/06/18 13:29:33;;;;;;;3.88;1.02;;;22.80;99.90;;;;;;4976860;28;20133;-80
2022/06/18 13:32:13;;;;;;;4.43;0.95;;;22.90;99.90;;;;;;4954223;28;20039;-79